createdAt,value
2018-06-17T00:00:24.274Z,0
2018-06-17T00:01:44.814Z,0
2018-06-17T00:02:50.004Z,0
2018-06-17T00:03:55.203Z,0
2018-06-17T00:05:00.085Z,0
2018-06-17T00:06:04.693Z,0
2018-06-17T00:07:09.646Z,0
2018-06-17T00:08:15.115Z,0
2018-06-17T00:09:20.266Z,0
2018-06-17T00:10:25.950Z,0
2018-06-17T00:11:30.829Z,0
2018-06-17T00:12:36.058Z,0
2018-06-17T00:13:41.487Z,0
2018-06-17T00:14:46.632Z,0
2018-06-17T00:15:51.887Z,0
2018-06-17T00:16:56.762Z,0
2018-06-17T00:18:01.953Z,0
2018-06-17T00:19:06.945Z,0
2018-06-17T00:20:12.107Z,0
2018-06-17T00:21:17.540Z,0
2018-06-17T00:22:23.106Z,0
2018-06-17T00:23:28.511Z,0
2018-06-17T00:24:34.003Z,0
2018-06-17T00:25:39.158Z,0
2018-06-17T00:26:44.597Z,0
2018-06-17T00:27:50.057Z,0
2018-06-17T00:28:55.221Z,0
2018-06-17T00:30:00.366Z,0
2018-06-17T00:31:05.944Z,0
2018-06-17T00:32:10.811Z,0
2018-06-17T00:33:15.982Z,0
2018-06-17T00:34:21.540Z,0
2018-06-17T00:35:26.998Z,0
2018-06-17T00:36:33.083Z,0
2018-06-17T00:37:37.938Z,0
2018-06-17T00:38:43.090Z,0
2018-06-17T00:39:49.000Z,0
2018-06-17T00:40:54.455Z,0
2018-06-17T00:41:59.896Z,0
2018-06-17T00:43:05.319Z,0
2018-06-17T00:44:10.177Z,0
2018-06-17T00:45:15.038Z,0
2018-06-17T00:46:20.875Z,0
2018-06-17T00:47:26.310Z,0
2018-06-17T00:48:31.864Z,0
2018-06-17T00:49:37.008Z,0
2018-06-17T00:50:42.163Z,0
2018-06-17T00:51:47.675Z,0
2018-06-17T00:52:52.871Z,0
2018-06-17T00:53:58.305Z,0
2018-06-17T00:55:03.141Z,0
2018-06-17T00:56:08.008Z,0
2018-06-17T00:57:13.180Z,0
2018-06-17T00:58:18.582Z,0
2018-06-17T00:59:24.026Z,0
2018-06-17T01:00:29.289Z,0
2018-06-17T01:01:34.491Z,0
2018-06-17T01:02:39.076Z,0
2018-06-17T01:03:44.486Z,0
2018-06-17T01:04:49.917Z,0
2018-06-17T01:05:54.501Z,0
2018-06-17T01:06:59.492Z,0
2018-06-17T01:08:04.652Z,0
2018-06-17T01:09:09.808Z,0
2018-06-17T01:10:15.699Z,0
2018-06-17T01:11:20.581Z,0
2018-06-17T01:12:40.347Z,0
2018-06-17T01:13:45.785Z,0
2018-06-17T01:14:50.939Z,0
2018-06-17T01:15:56.723Z,0
2018-06-17T01:17:02.170Z,0
2018-06-17T01:18:06.486Z,0
2018-06-17T01:19:12.331Z,0
2018-06-17T01:20:17.497Z,0
2018-06-17T01:21:22.651Z,0
2018-06-17T01:22:28.633Z,0
2018-06-17T01:23:33.533Z,0
2018-06-17T01:24:38.690Z,0
2018-06-17T01:25:43.838Z,0
2018-06-17T01:26:49.273Z,0
2018-06-17T01:27:54.497Z,0
2018-06-17T01:28:59.930Z,0
2018-06-17T01:30:05.375Z,0
2018-06-17T01:31:10.796Z,0
2018-06-17T01:32:15.665Z,0
2018-06-17T01:33:20.817Z,0
2018-06-17T01:34:26.233Z,0
2018-06-17T01:35:31.126Z,0
2018-06-17T01:36:37.206Z,0
2018-06-17T01:37:42.354Z,0
2018-06-17T01:38:47.217Z,0
2018-06-17T01:39:53.049Z,0
2018-06-17T01:40:58.226Z,0
2018-06-17T01:42:03.654Z,0
2018-06-17T01:43:09.341Z,0
2018-06-17T01:44:14.810Z,0
2018-06-17T01:45:20.245Z,0
2018-06-17T01:46:26.101Z,0
2018-06-17T01:47:31.556Z,0
2018-06-17T01:48:37.002Z,0
2018-06-17T01:49:42.145Z,0
2018-06-17T01:50:47.688Z,0
2018-06-17T01:51:53.535Z,0
2018-06-17T01:52:58.973Z,0
2018-06-17T01:54:04.426Z,0
2018-06-17T01:55:09.913Z,0
2018-06-17T01:56:15.063Z,0
2018-06-17T01:57:20.216Z,0
2018-06-17T01:58:25.345Z,0
2018-06-17T01:59:30.493Z,0
2018-06-17T02:00:35.891Z,0
2018-06-17T02:01:41.332Z,0
2018-06-17T02:02:46.763Z,0
2018-06-17T02:03:52.555Z,0
2018-06-17T02:04:57.989Z,0
2018-06-17T02:06:02.860Z,0
2018-06-17T02:07:08.540Z,0
2018-06-17T02:08:13.704Z,0
2018-06-17T02:09:18.849Z,0
2018-06-17T02:10:24.549Z,0
2018-06-17T02:11:29.431Z,0
2018-06-17T02:12:35.360Z,0
2018-06-17T02:13:40.503Z,0
2018-06-17T02:14:45.372Z,0
2018-06-17T02:15:50.767Z,0
2018-06-17T02:16:56.195Z,0
2018-06-17T02:18:01.052Z,0
2018-06-17T02:19:05.179Z,0
2018-06-17T02:20:10.323Z,0
2018-06-17T02:21:15.779Z,0
2018-06-17T02:22:21.234Z,0
2018-06-17T02:23:26.671Z,0
2018-06-17T02:24:31.838Z,0
2018-06-17T02:25:36.744Z,0
2018-06-17T02:26:41.628Z,0
2018-06-17T02:27:46.764Z,0
2018-06-17T02:28:51.620Z,0
2018-06-17T02:29:56.776Z,0
2018-06-17T02:31:02.283Z,0
2018-06-17T02:32:07.165Z,0
2018-06-17T02:33:12.360Z,0
2018-06-17T02:34:17.761Z,0
2018-06-17T02:35:23.191Z,0
2018-06-17T02:36:29.072Z,0
2018-06-17T02:37:34.510Z,0
2018-06-17T02:38:39.952Z,0
2018-06-17T02:39:45.376Z,0
2018-06-17T02:40:50.816Z,0
2018-06-17T02:41:56.269Z,0
2018-06-17T02:43:01.937Z,0
2018-06-17T02:44:07.069Z,0
2018-06-17T02:45:12.498Z,0
2018-06-17T02:46:18.192Z,0
2018-06-17T02:47:23.344Z,0
2018-06-17T02:48:28.919Z,0
2018-06-17T02:49:33.775Z,0
2018-06-17T02:50:39.205Z,0
2018-06-17T02:51:44.607Z,0
2018-06-17T02:52:49.789Z,0
2018-06-17T02:53:54.643Z,0
2018-06-17T02:55:00.070Z,0
2018-06-17T02:56:04.941Z,0
2018-06-17T02:57:10.381Z,0
2018-06-17T02:58:16.070Z,0
2018-06-17T02:59:20.966Z,0
2018-06-17T03:00:26.077Z,0
2018-06-17T03:01:30.683Z,0
2018-06-17T03:02:35.843Z,0
2018-06-17T03:03:41.590Z,0
2018-06-17T03:04:46.692Z,0
2018-06-17T03:05:51.857Z,0
2018-06-17T03:06:57.635Z,0
2018-06-17T03:08:02.507Z,0
2018-06-17T03:09:07.138Z,0
2018-06-17T03:10:12.634Z,0
2018-06-17T03:11:17.231Z,0
2018-06-17T03:12:22.812Z,0
2018-06-17T03:13:28.306Z,0
2018-06-17T03:14:33.737Z,0
2018-06-17T03:15:39.603Z,0
2018-06-17T03:16:44.467Z,0
2018-06-17T03:17:49.903Z,0
2018-06-17T03:18:55.465Z,0
2018-06-17T03:20:00.357Z,0
2018-06-17T03:21:05.530Z,0
2018-06-17T03:22:11.217Z,0
2018-06-17T03:23:16.091Z,0
2018-06-17T03:24:21.243Z,0
2018-06-17T03:25:27.014Z,0
2018-06-17T03:26:32.511Z,0
2018-06-17T03:27:37.914Z,0
2018-06-17T03:28:42.246Z,0
2018-06-17T03:29:47.145Z,0
2018-06-17T03:30:52.559Z,0
2018-06-17T03:31:57.990Z,0
2018-06-17T03:33:02.861Z,0
2018-06-17T03:34:08.641Z,0
2018-06-17T03:35:14.072Z,0
2018-06-17T03:36:19.505Z,0
2018-06-17T03:37:23.792Z,0
2018-06-17T03:38:28.652Z,0
2018-06-17T03:39:34.591Z,0
2018-06-17T03:40:39.752Z,0
2018-06-17T03:41:44.340Z,0
2018-06-17T03:42:50.122Z,0
2018-06-17T03:43:54.990Z,0
2018-06-17T03:45:00.148Z,0
2018-06-17T03:46:05.140Z,0
2018-06-17T03:47:10.018Z,24
2018-06-17T03:48:15.455Z,24
2018-06-17T03:49:20.963Z,24
2018-06-17T03:50:26.118Z,24
2018-06-17T03:51:31.478Z,24
2018-06-17T03:52:36.369Z,24
2018-06-17T03:53:41.238Z,24
2018-06-17T03:54:46.879Z,24
2018-06-17T03:55:52.316Z,24
2018-06-17T03:56:57.761Z,24
2018-06-17T03:58:02.314Z,24
2018-06-17T03:59:06.904Z,24
2018-06-17T04:00:12.058Z,24
2018-06-17T04:01:16.912Z,40
2018-06-17T04:02:21.793Z,40
2018-06-17T04:03:26.979Z,40
2018-06-17T04:04:32.418Z,40
2018-06-17T04:05:37.573Z,40
2018-06-17T04:06:43.267Z,40
2018-06-17T04:07:48.422Z,40
2018-06-17T04:08:53.568Z,40
2018-06-17T04:09:59.249Z,40
2018-06-17T04:11:03.838Z,40
2018-06-17T04:12:09.028Z,40
2018-06-17T04:13:14.142Z,40
2018-06-17T04:14:19.319Z,55
2018-06-17T04:16:44.523Z,64
2018-06-17T04:17:49.953Z,64
2018-06-17T04:18:55.831Z,80
2018-06-17T04:20:01.260Z,80
2018-06-17T04:21:06.431Z,80
2018-06-17T04:22:11.983Z,80
2018-06-17T04:23:16.855Z,96
2018-06-17T04:24:22.046Z,96
2018-06-17T04:25:27.979Z,111
2018-06-17T04:26:32.857Z,88
2018-06-17T04:27:38.357Z,88
2018-06-17T04:28:42.935Z,88
2018-06-17T04:29:48.376Z,104
2018-06-17T04:30:54.221Z,104
2018-06-17T04:31:59.651Z,88
2018-06-17T04:33:04.808Z,104
2018-06-17T04:34:09.662Z,104
2018-06-17T04:35:14.243Z,104
2018-06-17T04:36:19.401Z,104
2018-06-17T04:37:24.986Z,121
2018-06-17T04:38:30.172Z,104
2018-06-17T04:39:35.148Z,121
2018-06-17T04:40:40.029Z,126
2018-06-17T04:41:44.621Z,80
2018-06-17T04:42:49.775Z,121
2018-06-17T04:43:54.937Z,121
2018-06-17T04:45:00.365Z,111
2018-06-17T04:46:05.775Z,111
2018-06-17T04:47:11.219Z,86
2018-06-17T04:48:16.645Z,86
2018-06-17T04:49:21.808Z,111
2018-06-17T04:50:26.958Z,104
2018-06-17T04:51:32.801Z,121
2018-06-17T04:52:38.238Z,121
2018-06-17T04:53:43.408Z,121
2018-06-17T04:54:49.141Z,121
2018-06-17T04:55:54.296Z,121
2018-06-17T04:56:59.736Z,121
2018-06-17T04:58:05.515Z,136
2018-06-17T04:59:10.385Z,121
2018-06-17T05:00:15.818Z,80
2018-06-17T05:01:21.065Z,136
2018-06-17T05:02:25.923Z,136
2018-06-17T05:03:31.952Z,151
2018-06-17T05:04:37.406Z,151
2018-06-17T05:05:42.585Z,151
2018-06-17T05:06:47.347Z,136
2018-06-17T05:07:52.499Z,151
2018-06-17T05:08:57.662Z,151
2018-06-17T05:10:02.781Z,121
2018-06-17T05:11:07.938Z,151
2018-06-17T05:12:13.369Z,151
2018-06-17T05:13:19.056Z,145
2018-06-17T05:14:24.483Z,145
2018-06-17T05:15:29.597Z,145
2018-06-17T05:16:34.740Z,145
2018-06-17T05:17:39.895Z,145
2018-06-17T05:18:45.777Z,145
2018-06-17T05:19:51.211Z,166
2018-06-17T05:20:56.652Z,145
2018-06-17T05:22:02.222Z,145
2018-06-17T05:23:07.376Z,145
2018-06-17T05:24:12.543Z,161
2018-06-17T05:25:18.322Z,161
2018-06-17T05:26:23.436Z,145
2018-06-17T05:27:29.157Z,161
2018-06-17T05:28:33.760Z,161
2018-06-17T05:29:38.915Z,161
2018-06-17T05:30:44.231Z,161
2018-06-17T05:31:49.683Z,161
2018-06-17T05:32:55.131Z,176
2018-06-17T05:34:00.682Z,176
2018-06-17T05:35:05.286Z,136
2018-06-17T05:36:10.719Z,176
2018-06-17T05:37:16.322Z,191
2018-06-17T05:38:21.799Z,191
2018-06-17T05:39:27.341Z,185
2018-06-17T05:40:32.500Z,201
2018-06-17T05:41:37.932Z,192
2018-06-17T05:42:43.491Z,192
2018-06-17T05:43:48.940Z,209
2018-06-17T05:44:54.083Z,209
2018-06-17T05:45:59.914Z,209
2018-06-17T05:47:05.078Z,209
2018-06-17T05:48:10.512Z,209
2018-06-17T05:49:15.943Z,225
2018-06-17T05:50:21.087Z,225
2018-06-17T05:51:27.464Z,216
2018-06-17T05:52:32.615Z,216
2018-06-17T05:53:37.213Z,233
2018-06-17T05:54:42.339Z,233
2018-06-17T05:55:47.673Z,201
2018-06-17T05:56:53.104Z,249
2018-06-17T05:57:58.524Z,201
2018-06-17T05:59:03.672Z,169
2018-06-17T06:00:08.837Z,233
2018-06-17T06:01:14.346Z,249
2018-06-17T06:02:19.777Z,233
2018-06-17T06:03:25.443Z,233
2018-06-17T06:04:31.088Z,249
2018-06-17T06:05:36.258Z,257
2018-06-17T06:06:41.663Z,257
2018-06-17T06:07:47.103Z,257
2018-06-17T06:08:52.246Z,257
2018-06-17T06:09:57.935Z,185
2018-06-17T06:11:03.090Z,169
2018-06-17T06:12:07.856Z,273
2018-06-17T06:13:12.484Z,185
2018-06-17T06:14:17.355Z,209
2018-06-17T06:15:22.532Z,192
2018-06-17T06:16:27.798Z,249
2018-06-17T06:17:33.244Z,176
2018-06-17T06:18:38.703Z,233
2018-06-17T06:19:43.299Z,273
2018-06-17T06:20:48.749Z,192
2018-06-17T06:21:54.433Z,225
2018-06-17T06:22:59.896Z,209
2018-06-17T06:24:05.044Z,176
2018-06-17T06:25:10.219Z,152
2018-06-17T06:26:15.648Z,152
2018-06-17T06:27:20.844Z,152
2018-06-17T06:28:26.404Z,152
2018-06-17T06:29:31.558Z,152
2018-06-17T06:30:37.488Z,169
2018-06-17T06:31:42.387Z,169
2018-06-17T06:32:46.978Z,152
2018-06-17T06:33:52.482Z,152
2018-06-17T06:34:57.637Z,161
2018-06-17T06:36:02.781Z,161
2018-06-17T06:37:08.194Z,145
2018-06-17T06:38:13.071Z,161
2018-06-17T06:39:18.219Z,145
2018-06-17T06:40:24.003Z,128
2018-06-17T06:41:29.444Z,145
2018-06-17T06:42:35.016Z,176
2018-06-17T06:43:39.916Z,152
2018-06-17T06:44:44.777Z,176
2018-06-17T06:45:50.168Z,176
2018-06-17T06:46:55.604Z,169
2018-06-17T06:48:00.753Z,145
2018-06-17T06:49:06.247Z,166
2018-06-17T06:50:11.414Z,166
2018-06-17T06:51:16.575Z,151
2018-06-17T06:52:21.712Z,151
2018-06-17T06:53:26.859Z,166
2018-06-17T06:54:32.519Z,169
2018-06-17T06:55:37.397Z,225
2018-06-17T06:56:42.548Z,225
2018-06-17T06:57:48.658Z,266
2018-06-17T06:58:53.529Z,161
2018-06-17T06:59:57.836Z,151
2018-06-17T07:01:02.497Z,151
2018-06-17T07:02:06.808Z,233
2018-06-17T07:03:12.247Z,216
2018-06-17T07:04:17.644Z,185
2018-06-17T07:05:23.076Z,191
2018-06-17T07:06:29.026Z,216
2018-06-17T07:07:34.185Z,209
2018-06-17T07:08:39.648Z,241
2018-06-17T07:09:45.209Z,241
2018-06-17T07:10:50.375Z,241
2018-06-17T07:11:55.277Z,257
2018-06-17T07:13:00.844Z,191
2018-06-17T07:14:05.726Z,209
2018-06-17T07:15:10.902Z,225
2018-06-17T07:16:16.305Z,209
2018-06-17T07:17:21.458Z,161
2018-06-17T07:18:42.038Z,249
2018-06-17T07:19:47.470Z,249
2018-06-17T07:20:52.902Z,249
2018-06-17T07:21:58.305Z,266
2018-06-17T07:23:02.904Z,266
2018-06-17T07:24:08.057Z,266
2018-06-17T07:25:13.561Z,257
2018-06-17T07:26:18.713Z,289
2018-06-17T07:27:24.208Z,273
2018-06-17T07:28:29.776Z,233
2018-06-17T07:29:34.922Z,280
2018-06-17T07:30:40.140Z,280
2018-06-17T07:31:45.297Z,280
2018-06-17T07:32:50.152Z,280
2018-06-17T07:33:55.845Z,289
2018-06-17T07:35:01.013Z,273
2018-06-17T07:36:06.154Z,273
2018-06-17T07:37:10.893Z,169
2018-06-17T07:38:15.482Z,257
2018-06-17T07:39:20.364Z,273
2018-06-17T07:40:26.107Z,233
2018-06-17T07:41:31.249Z,191
2018-06-17T07:42:36.802Z,233
2018-06-17T07:43:41.757Z,185
2018-06-17T07:44:47.203Z,201
2018-06-17T07:45:52.335Z,185
2018-06-17T07:46:57.771Z,257
2018-06-17T07:48:02.664Z,201
2018-06-17T07:49:08.360Z,201
2018-06-17T07:50:12.687Z,280
2018-06-17T07:51:18.117Z,216
2018-06-17T07:52:23.534Z,225
2018-06-17T07:53:28.690Z,185
2018-06-17T07:54:34.543Z,201
2018-06-17T07:55:39.696Z,313
2018-06-17T07:56:44.565Z,330
2018-06-17T07:57:50.405Z,249
2018-06-17T07:58:54.992Z,289
2018-06-17T08:00:00.429Z,353
2018-06-17T08:01:05.374Z,241
2018-06-17T08:02:10.282Z,370
2018-06-17T08:03:15.438Z,247
2018-06-17T08:04:20.988Z,361
2018-06-17T08:05:25.878Z,361
2018-06-17T08:06:31.631Z,377
2018-06-17T08:07:36.788Z,394
2018-06-17T08:08:42.229Z,394
2018-06-17T08:09:47.511Z,282
2018-06-17T08:10:53.402Z,394
2018-06-17T08:11:58.816Z,306
2018-06-17T08:13:04.509Z,353
2018-06-17T08:14:09.945Z,361
2018-06-17T08:15:15.376Z,392
2018-06-17T08:16:20.228Z,273
2018-06-17T08:17:25.093Z,425
2018-06-17T08:18:30.368Z,425
2018-06-17T08:19:35.511Z,392
2018-06-17T08:20:40.398Z,328
2018-06-17T08:21:45.116Z,266
2018-06-17T08:22:50.259Z,361
2018-06-17T08:23:55.130Z,273
2018-06-17T08:25:00.249Z,344
2018-06-17T08:26:05.117Z,394
2018-06-17T08:27:10.003Z,385
2018-06-17T08:28:15.605Z,385
2018-06-17T08:29:20.485Z,368
2018-06-17T08:30:40.998Z,361
2018-06-17T08:31:46.178Z,377
2018-06-17T08:32:51.595Z,273
2018-06-17T08:33:57.297Z,297
2018-06-17T08:35:02.472Z,344
2018-06-17T08:36:07.340Z,377
2018-06-17T08:37:12.759Z,394
2018-06-17T08:38:17.610Z,377
2018-06-17T08:39:23.044Z,377
2018-06-17T08:40:28.902Z,344
2018-06-17T08:41:34.059Z,328
2018-06-17T08:42:38.722Z,288
2018-06-17T08:43:43.879Z,280
2018-06-17T08:44:48.754Z,288
2018-06-17T08:45:54.308Z,304
2018-06-17T08:46:59.191Z,280
2018-06-17T08:48:04.624Z,280
2018-06-17T08:49:10.316Z,377
2018-06-17T08:50:14.902Z,297
2018-06-17T08:51:20.089Z,249
2018-06-17T08:52:25.207Z,200
2018-06-17T08:53:30.358Z,216
2018-06-17T08:54:35.524Z,249
2018-06-17T08:55:40.394Z,209
2018-06-17T08:56:45.825Z,192
2018-06-17T08:57:51.337Z,240
2018-06-17T08:58:56.774Z,385
2018-06-17T09:00:01.922Z,394
2018-06-17T09:01:07.529Z,368
2018-06-17T09:02:12.969Z,377
2018-06-17T09:03:18.425Z,377
2018-06-17T09:04:23.838Z,434
2018-06-17T09:05:28.984Z,418
2018-06-17T09:06:34.715Z,297
2018-06-17T09:07:39.583Z,352
2018-06-17T09:08:44.173Z,352
2018-06-17T09:09:49.724Z,385
2018-06-17T09:10:55.177Z,425
2018-06-17T09:12:00.609Z,425
2018-06-17T09:13:05.559Z,409
2018-06-17T09:14:10.717Z,297
2018-06-17T09:15:15.598Z,346
2018-06-17T09:16:21.020Z,449
2018-06-17T09:17:26.180Z,441
2018-06-17T09:18:31.506Z,297
2018-06-17T09:19:36.371Z,297
2018-06-17T09:20:41.524Z,297
2018-06-17T09:21:47.356Z,306
2018-06-17T09:22:52.510Z,322
2018-06-17T09:23:57.085Z,313
2018-06-17T09:25:02.356Z,330
2018-06-17T09:26:07.508Z,321
2018-06-17T09:27:12.097Z,432
2018-06-17T09:28:17.501Z,376
2018-06-17T09:29:22.655Z,392
2018-06-17T09:30:28.469Z,465
2018-06-17T09:31:33.633Z,506
2018-06-17T09:32:38.257Z,465
2018-06-17T09:33:43.796Z,498
2018-06-17T09:34:49.226Z,465
2018-06-17T09:35:54.665Z,337
2018-06-17T09:36:59.934Z,353
2018-06-17T09:38:05.326Z,377
2018-06-17T09:39:09.922Z,386
2018-06-17T09:40:15.317Z,441
2018-06-17T09:41:20.186Z,409
2018-06-17T09:42:26.385Z,409
2018-06-17T09:43:31.818Z,458
2018-06-17T09:44:36.717Z,368
2018-06-17T09:45:42.100Z,337
2018-06-17T09:46:46.982Z,321
2018-06-17T09:47:51.574Z,304
2018-06-17T09:48:56.694Z,361
2018-06-17T09:50:01.864Z,401
2018-06-17T09:51:06.753Z,377
2018-06-17T09:52:12.156Z,361
2018-06-17T09:53:17.300Z,321
2018-06-17T09:54:22.775Z,344
2018-06-17T09:55:28.633Z,361
2018-06-17T09:56:34.090Z,328
2018-06-17T09:57:39.643Z,337
2018-06-17T09:58:44.791Z,353
2018-06-17T09:59:49.669Z,344
2018-06-17T10:00:55.061Z,394
2018-06-17T10:02:00.215Z,401
2018-06-17T10:03:05.374Z,401
2018-06-17T10:04:10.495Z,401
2018-06-17T10:05:15.088Z,418
2018-06-17T10:06:20.517Z,425
2018-06-17T10:07:26.024Z,441
2018-06-17T10:08:31.204Z,418
2018-06-17T10:09:36.607Z,377
2018-06-17T10:10:41.464Z,337
2018-06-17T10:11:46.045Z,401
2018-06-17T10:12:51.611Z,337
2018-06-17T10:13:56.768Z,353
2018-06-17T10:15:01.934Z,370
2018-06-17T10:16:06.764Z,386
2018-06-17T10:17:12.200Z,370
2018-06-17T10:18:16.773Z,361
2018-06-17T10:19:22.469Z,425
2018-06-17T10:20:27.633Z,385
2018-06-17T10:21:33.761Z,418
2018-06-17T10:22:38.636Z,458
2018-06-17T10:23:43.792Z,425
2018-06-17T10:24:49.248Z,401
2018-06-17T10:25:54.702Z,370
2018-06-17T10:26:59.294Z,361
2018-06-17T10:28:04.569Z,409
2018-06-17T10:29:09.441Z,425
2018-06-17T10:30:14.615Z,441
2018-06-17T10:31:20.316Z,458
2018-06-17T10:32:25.759Z,456
2018-06-17T10:33:31.213Z,432
2018-06-17T10:34:36.469Z,392
2018-06-17T10:35:41.599Z,392
2018-06-17T10:36:47.444Z,409
2018-06-17T10:37:52.881Z,425
2018-06-17T10:38:57.738Z,401
2018-06-17T10:40:02.728Z,385
2018-06-17T10:41:07.038Z,401
2018-06-17T10:42:12.482Z,385
2018-06-17T10:43:18.050Z,377
2018-06-17T10:44:23.890Z,377
2018-06-17T10:45:29.423Z,368
2018-06-17T10:46:34.783Z,361
2018-06-17T10:47:40.220Z,352
2018-06-17T10:48:46.065Z,330
2018-06-17T10:49:50.743Z,377
2018-06-17T10:50:55.889Z,313
2018-06-17T10:52:00.874Z,353
2018-06-17T10:53:05.749Z,458
2018-06-17T10:54:10.906Z,434
2018-06-17T10:55:16.588Z,432
2018-06-17T10:56:21.762Z,409
2018-06-17T10:57:27.379Z,425
2018-06-17T10:58:32.525Z,425
2018-06-17T10:59:37.680Z,441
2018-06-17T11:00:43.362Z,418
2018-06-17T11:01:48.796Z,465
2018-06-17T11:02:53.684Z,482
2018-06-17T11:03:58.791Z,473
2018-06-17T11:05:03.952Z,489
2018-06-17T11:06:09.423Z,513
2018-06-17T11:07:14.840Z,513
2018-06-17T11:08:19.735Z,353
2018-06-17T11:09:25.864Z,529
2018-06-17T11:10:31.051Z,456
2018-06-17T11:11:35.359Z,370
2018-06-17T11:12:41.192Z,497
2018-06-17T11:13:45.769Z,394
2018-06-17T11:14:50.913Z,449
2018-06-17T11:15:56.410Z,377
2018-06-17T11:17:01.577Z,321
2018-06-17T11:18:06.769Z,377
2018-06-17T11:19:12.320Z,497
2018-06-17T11:20:17.184Z,330
2018-06-17T11:21:22.626Z,361
2018-06-17T11:22:28.029Z,368
2018-06-17T11:23:32.331Z,346
2018-06-17T11:24:37.815Z,346
2018-06-17T11:25:42.849Z,337
2018-06-17T11:26:48.000Z,353
2018-06-17T11:27:53.837Z,361
2018-06-17T11:28:59.283Z,370
2018-06-17T11:30:04.438Z,361
2018-06-17T11:31:09.845Z,361
2018-06-17T11:32:15.001Z,361
2018-06-17T11:33:20.447Z,361
2018-06-17T11:34:25.842Z,337
2018-06-17T11:35:31.291Z,330
2018-06-17T11:36:37.115Z,353
2018-06-17T11:37:42.293Z,394
2018-06-17T11:38:47.287Z,361
2018-06-17T11:39:53.056Z,297
2018-06-17T11:40:58.516Z,280
2018-06-17T11:42:03.934Z,297
2018-06-17T11:43:09.080Z,297
2018-06-17T11:44:14.522Z,337
2018-06-17T11:45:19.382Z,377
2018-06-17T11:46:24.498Z,353
2018-06-17T11:47:29.658Z,353
2018-06-17T11:48:35.603Z,353
2018-06-17T11:49:40.771Z,361
2018-06-17T11:50:45.927Z,401
2018-06-17T11:51:51.615Z,465
2018-06-17T11:52:56.782Z,506
2018-06-17T11:54:01.388Z,458
2018-06-17T11:55:06.654Z,489
2018-06-17T11:56:11.818Z,482
2018-06-17T11:57:17.268Z,458
2018-06-17T11:58:22.948Z,432
2018-06-17T11:59:28.117Z,385
2018-06-17T12:00:34.161Z,377
2018-06-17T12:01:39.610Z,385
2018-06-17T12:02:44.482Z,409
2018-06-17T12:03:49.987Z,425
2018-06-17T12:04:55.161Z,425
2018-06-17T12:06:00.594Z,425
2018-06-17T12:07:05.808Z,385
2018-06-17T12:08:10.707Z,353
2018-06-17T12:09:15.585Z,321
2018-06-17T12:10:21.376Z,353
2018-06-17T12:11:26.241Z,344
2018-06-17T12:12:31.886Z,361
2018-06-17T12:13:37.329Z,370
2018-06-17T12:14:42.806Z,370
2018-06-17T12:15:48.649Z,370
2018-06-17T12:16:53.235Z,377
2018-06-17T12:17:58.381Z,425
2018-06-17T12:19:04.219Z,432
2018-06-17T12:20:09.378Z,416
2018-06-17T12:21:14.811Z,385
2018-06-17T12:22:20.279Z,361
2018-06-17T12:23:24.874Z,361
2018-06-17T12:24:30.474Z,385
2018-06-17T12:25:35.351Z,385
2018-06-17T12:26:40.788Z,368
2018-06-17T12:27:46.383Z,401
2018-06-17T12:28:51.815Z,401
2018-06-17T12:29:57.275Z,361
2018-06-17T12:31:02.110Z,337
2018-06-17T12:32:06.709Z,337
2018-06-17T12:33:12.173Z,353
2018-06-17T12:34:17.093Z,377
2018-06-17T12:35:21.981Z,377
2018-06-17T12:36:27.283Z,394
2018-06-17T12:37:32.174Z,394
2018-06-17T12:38:37.605Z,385
2018-06-17T12:39:43.471Z,385
2018-06-17T12:40:49.195Z,401
2018-06-17T12:41:54.134Z,418
2018-06-17T12:42:59.980Z,441
2018-06-17T12:44:05.425Z,458
2018-06-17T12:45:10.014Z,449
2018-06-17T12:46:15.747Z,482
2018-06-17T12:47:20.619Z,498
2018-06-17T12:48:26.387Z,489
2018-06-17T12:49:31.535Z,489
2018-06-17T12:50:36.688Z,506
2018-06-17T12:51:42.451Z,515
2018-06-17T12:52:47.653Z,482
2018-06-17T12:53:52.799Z,489
2018-06-17T12:54:58.220Z,473
2018-06-17T12:56:03.084Z,370
2018-06-17T12:57:07.938Z,280
2018-06-17T12:58:13.333Z,264
2018-06-17T12:59:18.198Z,280
2018-06-17T13:00:23.077Z,297
2018-06-17T13:01:28.969Z,313
2018-06-17T13:02:34.116Z,280
2018-06-17T13:03:39.566Z,297
2018-06-17T13:04:45.433Z,297
2018-06-17T13:05:50.306Z,313
2018-06-17T13:06:55.589Z,330
2018-06-17T13:08:01.222Z,304
2018-06-17T13:09:05.812Z,330
2018-06-17T13:10:11.601Z,304
2018-06-17T13:11:16.473Z,304
2018-06-17T13:12:21.909Z,330
2018-06-17T13:13:27.331Z,313
2018-06-17T13:14:32.200Z,330
2018-06-17T13:15:37.478Z,304
2018-06-17T13:16:42.356Z,321
2018-06-17T13:17:47.221Z,330
2018-06-17T13:18:52.903Z,321
2018-06-17T13:19:58.064Z,304
2018-06-17T13:21:03.291Z,297
2018-06-17T13:22:08.557Z,297
2018-06-17T13:23:13.922Z,321
2018-06-17T13:24:18.801Z,337
2018-06-17T13:25:24.303Z,337
2018-06-17T13:26:29.468Z,321
2018-06-17T13:27:35.013Z,304
2018-06-17T13:28:40.162Z,321
2018-06-17T13:29:44.905Z,321
2018-06-17T13:30:50.590Z,353
2018-06-17T13:31:56.035Z,353
2018-06-17T13:33:01.538Z,370
2018-06-17T13:34:07.281Z,344
2018-06-17T13:35:12.465Z,361
2018-06-17T13:36:17.783Z,361
2018-06-17T13:37:23.070Z,361
2018-06-17T13:38:28.514Z,377
2018-06-17T13:39:34.114Z,394
2018-06-17T13:40:39.545Z,394
2018-06-17T13:41:44.987Z,394
2018-06-17T13:42:51.011Z,394
2018-06-17T13:43:56.484Z,441
2018-06-17T13:45:01.074Z,458
2018-06-17T13:46:06.015Z,432
2018-06-17T13:47:11.489Z,385
2018-06-17T13:48:16.365Z,321
2018-06-17T13:49:21.035Z,321
2018-06-17T13:50:25.903Z,313
2018-06-17T13:51:31.171Z,280
2018-06-17T13:52:36.501Z,257
2018-06-17T13:53:41.656Z,249
2018-06-17T13:54:47.074Z,225
2018-06-17T13:55:51.997Z,209
2018-06-17T13:56:57.224Z,209
2018-06-17T13:58:02.452Z,209
2018-06-17T13:59:07.323Z,192
2018-06-17T14:00:12.203Z,192
2018-06-17T14:01:17.972Z,192
2018-06-17T14:02:23.133Z,176
2018-06-17T14:03:28.658Z,176
2018-06-17T14:04:33.815Z,176
2018-06-17T14:05:38.689Z,185
2018-06-17T14:06:44.253Z,185
2018-06-17T14:07:49.125Z,185
2018-06-17T14:08:54.278Z,185
2018-06-17T14:09:59.397Z,169
2018-06-17T14:11:04.582Z,169
2018-06-17T14:12:09.738Z,185
2018-06-17T14:13:15.147Z,159
2018-06-17T14:14:20.578Z,176
2018-06-17T14:15:26.814Z,176
2018-06-17T14:16:31.420Z,176
2018-06-17T14:17:36.765Z,176
2018-06-17T14:18:42.557Z,192
2018-06-17T14:19:48.067Z,209
2018-06-17T14:20:53.497Z,209
2018-06-17T14:21:58.916Z,209
2018-06-17T14:23:03.786Z,209
2018-06-17T14:24:08.656Z,209
2018-06-17T14:25:14.163Z,209
2018-06-17T14:26:19.594Z,209
2018-06-17T14:27:25.482Z,209
2018-06-17T14:28:30.364Z,200
2018-06-17T14:29:35.248Z,200
2018-06-17T14:30:40.534Z,216
2018-06-17T14:31:45.968Z,233
2018-06-17T14:32:50.581Z,240
2018-06-17T14:33:56.263Z,273
2018-06-17T14:35:01.422Z,297
2018-06-17T14:36:06.009Z,321
2018-06-17T14:37:11.592Z,361
2018-06-17T14:38:17.035Z,385
2018-06-17T14:39:22.471Z,425
2018-06-17T14:40:27.451Z,491
2018-06-17T14:41:32.047Z,498
2018-06-17T14:42:37.740Z,555
2018-06-17T14:43:42.910Z,570
2018-06-17T14:44:48.341Z,619
2018-06-17T14:45:53.746Z,610
2018-06-17T14:46:58.897Z,659
2018-06-17T14:48:04.041Z,691
2018-06-17T14:49:09.725Z,723
2018-06-17T14:50:15.161Z,691
2018-06-17T14:51:20.323Z,667
2018-06-17T14:52:26.178Z,635
2018-06-17T14:53:31.044Z,658
2018-06-17T14:54:36.883Z,594
2018-06-17T14:55:42.028Z,531
2018-06-17T14:56:46.897Z,491
2018-06-17T14:57:52.595Z,458
2018-06-17T14:58:58.043Z,482
2018-06-17T15:00:02.919Z,410
2018-06-17T15:01:08.043Z,434
2018-06-17T15:02:13.195Z,434
2018-06-17T15:03:17.796Z,450
2018-06-17T15:04:22.917Z,474
2018-06-17T15:05:27.793Z,507
2018-06-17T15:06:33.490Z,579
2018-06-17T15:07:38.683Z,482
2018-06-17T15:08:43.830Z,441
2018-06-17T15:09:48.974Z,394
2018-06-17T15:10:54.405Z,370
2018-06-17T15:11:59.874Z,353
2018-06-17T15:13:04.967Z,313
2018-06-17T15:14:09.933Z,297
2018-06-17T15:15:14.854Z,313
2018-06-17T15:16:20.790Z,330
2018-06-17T15:17:26.247Z,313